createdAt,value
2023-04-02T00:00:34.665Z,84.2756
2023-04-02T00:01:35.450Z,84.5347
2023-04-02T00:02:36.317Z,84.5585
2023-04-02T00:03:37.347Z,84.2036
2023-04-02T00:04:38.229Z,83.8291
2023-04-02T00:05:39.029Z,83.9056
2023-04-02T00:06:39.842Z,84.0630
2023-04-02T00:07:40.669Z,83.7460
2023-04-02T00:08:41.520Z,83.1709
2023-04-02T00:09:42.424Z,82.6208
2023-04-02T00:10:43.196Z,82.7263
2023-04-02T00:11:43.962Z,83.5670
2023-04-02T00:12:44.814Z,83.9092
2023-04-02T00:13:46.655Z,83.4133
2023-04-02T00:14:47.581Z,83.7255
2023-04-02T00:15:48.378Z,83.5649
2023-04-02T00:16:49.246Z,83.4258
2023-04-02T00:17:50.230Z,83.7283
2023-04-02T00:18:50.988Z,83.9829
2023-04-02T00:19:51.810Z,83.8511
2023-04-02T00:20:52.615Z,83.5295
2023-04-02T00:21:53.608Z,83.3052
2023-04-02T00:22:54.401Z,83.0185
2023-04-02T00:23:55.222Z,83.3299
2023-04-02T00:24:56.065Z,83.6493
2023-04-02T00:25:57.042Z,83.9212
2023-04-02T00:26:57.943Z,83.9363
2023-04-02T00:27:58.720Z,84.2496
2023-04-02T00:28:59.523Z,84.5937
2023-04-02T00:30:00.418Z,84.8288
2023-04-02T00:31:01.242Z,85.0969
2023-04-02T00:32:02.139Z,85.6481
2023-04-02T00:33:03.078Z,86.0694
2023-04-02T00:34:03.924Z,86.5586
2023-04-02T00:35:04.813Z,87.2853
2023-04-02T00:36:05.643Z,87.6826
2023-04-02T00:37:06.473Z,86.9664
2023-04-02T00:38:07.342Z,87.6771
2023-04-02T00:39:08.111Z,87.9222
2023-04-02T00:40:08.914Z,87.7293
2023-04-02T00:41:09.766Z,87.1690
2023-04-02T00:42:10.582Z,87.1810
2023-04-02T00:43:11.413Z,87.5746
2023-04-02T00:44:12.253Z,87.5517
2023-04-02T00:45:13.074Z,87.7736
2023-04-02T00:46:13.965Z,87.8897
2023-04-02T00:47:14.953Z,88.1215
2023-04-02T00:48:15.778Z,87.7516
2023-04-02T00:49:16.658Z,87.8538
2023-04-02T00:50:17.561Z,88.0422
2023-04-02T00:51:18.412Z,88.1054
2023-04-02T00:52:19.238Z,87.8831
2023-04-02T00:53:20.082Z,88.0441
2023-04-02T00:54:20.925Z,88.3313
2023-04-02T00:55:21.803Z,88.3252
2023-04-02T00:56:22.701Z,88.2913
2023-04-02T00:57:23.676Z,88.3795
2023-04-02T00:58:24.624Z,88.4675
2023-04-02T00:59:25.485Z,88.5480
2023-04-02T01:00:26.531Z,88.0755
2023-04-02T01:01:27.622Z,87.8095
2023-04-02T01:02:29.241Z,88.1897
2023-04-02T01:03:31.169Z,88.3484
2023-04-02T01:04:32.366Z,88.0247
2023-04-02T01:05:34.083Z,88.3059
2023-04-02T01:06:35.423Z,88.3870
2023-04-02T01:07:36.237Z,88.2528
2023-04-02T01:08:37.047Z,87.9169
2023-04-02T01:09:37.933Z,87.9607
2023-04-02T01:10:39.089Z,87.7457
2023-04-02T01:11:40.045Z,87.8232
2023-04-02T01:12:40.981Z,87.6570
2023-04-02T01:13:41.886Z,87.1548
2023-04-02T01:14:42.733Z,87.2302
2023-04-02T01:15:43.682Z,87.5012
2023-04-02T01:16:44.480Z,87.3078
2023-04-02T01:17:45.493Z,87.4542
2023-04-02T01:18:46.407Z,87.5226
2023-04-02T01:19:47.362Z,87.6791
2023-04-02T01:20:48.309Z,87.3869
2023-04-02T01:21:49.200Z,87.0781
2023-04-02T01:22:50.082Z,86.9088
2023-04-02T01:23:50.892Z,87.3457
2023-04-02T01:24:51.725Z,87.7457
2023-04-02T01:25:52.572Z,87.1838
2023-04-02T01:26:53.409Z,86.8298
2023-04-02T01:27:54.236Z,87.1923
2023-04-02T01:28:55.306Z,86.8366
2023-04-02T01:29:56.203Z,86.8792
2023-04-02T01:30:57.122Z,86.7357
2023-04-02T01:31:57.907Z,86.6199
2023-04-02T01:32:58.788Z,86.7518
2023-04-02T01:33:59.941Z,86.8154
2023-04-02T01:35:00.740Z,87.0029
2023-04-02T01:36:01.725Z,87.0572
2023-04-02T01:37:02.554Z,86.9016
2023-04-02T01:38:03.339Z,87.0483
2023-04-02T01:39:04.141Z,87.2736
2023-04-02T01:40:04.945Z,87.3217
2023-04-02T01:41:05.728Z,87.2452
2023-04-02T01:42:06.551Z,87.3503
2023-04-02T01:43:08.416Z,87.4423
2023-04-02T01:44:09.213Z,87.1353
2023-04-02T01:45:10.125Z,87.0328
2023-04-02T01:46:10.988Z,87.4683
2023-04-02T01:47:11.849Z,87.2052
2023-04-02T01:48:12.646Z,86.4357
2023-04-02T01:49:13.537Z,86.5264
2023-04-02T01:50:14.421Z,86.3288
2023-04-02T01:51:15.364Z,85.7382
2023-04-02T01:52:16.223Z,85.8734
2023-04-02T01:53:18.080Z,86.0663
2023-04-02T01:54:18.897Z,85.9707
2023-04-02T01:55:19.918Z,85.8682
2023-04-02T01:56:20.747Z,85.7992
2023-04-02T01:57:21.752Z,85.6414
2023-04-02T01:58:22.557Z,85.4934
2023-04-02T01:59:23.468Z,85.2016
2023-04-02T02:00:24.336Z,85.2510
2023-04-02T02:01:25.315Z,85.4627
2023-04-02T02:02:26.244Z,85.9946
2023-04-02T02:03:27.034Z,85.8814
2023-04-02T02:04:27.948Z,85.5511
2023-04-02T02:05:28.823Z,85.5136
2023-04-02T02:06:29.669Z,85.6738
2023-04-02T02:07:30.514Z,85.8197
2023-04-02T02:08:31.310Z,86.1016
2023-04-02T02:09:32.123Z,85.9823
2023-04-02T02:10:32.927Z,85.9856
2023-04-02T02:11:33.778Z,86.1835
2023-04-02T02:12:34.588Z,85.8316
2023-04-02T02:13:35.420Z,85.8750
2023-04-02T02:14:36.263Z,85.8396
2023-04-02T02:15:37.642Z,86.0253
2023-04-02T02:16:38.644Z,86.1667
2023-04-02T02:17:39.488Z,85.6932
2023-04-02T02:18:40.308Z,85.5550
2023-04-02T02:19:41.137Z,85.5786
2023-04-02T02:20:42.076Z,85.7030
2023-04-02T02:21:42.884Z,85.7658
2023-04-02T02:22:43.770Z,85.8798
2023-04-02T02:23:44.611Z,85.9777
2023-04-02T02:24:45.432Z,86.2343
2023-04-02T02:25:46.282Z,86.2759
2023-04-02T02:26:47.087Z,85.8544
2023-04-02T02:27:47.995Z,84.7968
2023-04-02T02:28:48.775Z,84.9775
2023-04-02T02:29:49.724Z,85.2561
2023-04-02T02:30:50.571Z,85.6909
2023-04-02T02:31:51.545Z,84.9321
2023-04-02T02:32:52.492Z,84.7175
2023-04-02T02:33:53.347Z,84.6209
2023-04-02T02:34:54.184Z,84.8281
2023-04-02T02:35:55.149Z,84.9735
2023-04-02T02:36:56.051Z,85.3820
2023-04-02T02:37:56.893Z,84.5621
2023-04-02T02:38:57.825Z,84.1421
2023-04-02T02:39:58.668Z,84.4854
2023-04-02T02:40:59.513Z,84.7715
2023-04-02T02:42:00.362Z,84.0059
2023-04-02T02:43:01.191Z,84.4304
2023-04-02T02:44:02.037Z,83.8160
2023-04-02T02:45:02.894Z,83.8755
2023-04-02T02:46:03.842Z,84.1726
2023-04-02T02:47:04.607Z,84.0759
2023-04-02T02:48:05.493Z,84.3706
2023-04-02T02:49:06.353Z,84.1078
2023-04-02T02:50:07.184Z,83.9419
2023-04-02T02:51:08.001Z,84.1200
2023-04-02T02:52:08.948Z,84.3548
2023-04-02T02:53:09.778Z,84.3218
2023-04-02T02:54:10.572Z,84.5196
2023-04-02T02:55:11.431Z,84.7166
2023-04-02T02:56:12.256Z,84.2713
2023-04-02T02:57:13.212Z,84.4790
2023-04-02T02:58:14.030Z,84.8001
2023-04-02T02:59:14.904Z,84.5071
2023-04-02T03:00:15.787Z,84.6870
2023-04-02T03:01:16.690Z,84.6309
2023-04-02T03:02:17.597Z,84.4386
2023-04-02T03:03:18.854Z,84.0026
2023-04-02T03:04:19.987Z,83.8368
2023-04-02T03:05:20.881Z,83.8074
2023-04-02T03:06:21.740Z,83.7490
2023-04-02T03:07:22.608Z,83.9554
2023-04-02T03:08:23.436Z,84.2118
2023-04-02T03:09:24.295Z,84.2008
2023-04-02T03:10:25.144Z,83.8436
2023-04-02T03:11:26.029Z,83.7892
2023-04-02T03:12:26.870Z,84.0634
2023-04-02T03:13:27.794Z,83.7825
2023-04-02T03:14:28.637Z,83.9408
2023-04-02T03:15:29.541Z,84.1745
2023-04-02T03:16:30.345Z,84.2603
2023-04-02T03:17:31.164Z,84.6187
2023-04-02T03:18:31.996Z,84.7411
2023-04-02T03:19:32.790Z,84.3795
2023-04-02T03:20:33.649Z,84.5524
2023-04-02T03:21:34.509Z,83.8514
2023-04-02T03:22:35.380Z,83.6926
2023-04-02T03:23:36.268Z,83.9930
2023-04-02T03:24:37.113Z,84.0161
2023-04-02T03:25:38.026Z,83.7760
2023-04-02T03:26:38.853Z,84.0137
2023-04-02T03:27:39.696Z,83.8263
2023-04-02T03:28:40.529Z,83.7169
2023-04-02T03:29:41.415Z,83.6936
2023-04-02T03:30:42.272Z,83.7924
2023-04-02T03:31:43.206Z,84.1846
2023-04-02T03:32:44.030Z,84.1714
2023-04-02T03:33:44.920Z,84.0688
2023-04-02T03:34:45.786Z,83.8550
2023-04-02T03:35:46.671Z,83.8116
2023-04-02T03:36:47.520Z,83.7864
2023-04-02T03:37:48.359Z,83.7044
2023-04-02T03:38:49.240Z,83.8681
2023-04-02T03:39:50.100Z,84.0347
2023-04-02T03:40:50.918Z,83.8624
2023-04-02T03:41:51.744Z,84.2271
2023-04-02T03:42:52.625Z,84.2337
2023-04-02T03:43:53.452Z,83.9278
2023-04-02T03:44:54.292Z,84.4365
2023-04-02T03:45:55.155Z,83.6866
2023-04-02T03:46:56.068Z,83.8773
2023-04-02T03:47:56.996Z,84.4566
2023-04-02T03:48:57.834Z,84.0682
2023-04-02T03:49:58.647Z,84.4950
2023-04-02T03:50:59.541Z,84.5337
2023-04-02T03:52:00.445Z,84.5225
2023-04-02T03:53:01.329Z,84.4724
2023-04-02T03:54:02.145Z,84.7976
2023-04-02T03:55:02.931Z,85.0367
2023-04-02T03:56:03.698Z,84.9266
2023-04-02T03:57:04.627Z,85.2467
2023-04-02T03:58:05.449Z,85.2289
2023-04-02T03:59:06.315Z,85.0602
2023-04-02T04:00:07.158Z,85.1762
2023-04-02T04:01:07.982Z,85.5039
2023-04-02T04:02:08.870Z,85.3877
2023-04-02T04:03:09.828Z,85.5428
2023-04-02T04:04:11.147Z,85.3464
2023-04-02T04:05:12.009Z,85.3529
2023-04-02T04:06:12.980Z,84.7870
2023-04-02T04:07:13.889Z,84.9702
2023-04-02T04:08:14.752Z,84.2289
2023-04-02T04:09:15.607Z,81.9750
2023-04-02T04:10:16.455Z,81.1212
2023-04-02T04:11:17.366Z,81.5764
2023-04-02T04:12:18.189Z,81.5914
2023-04-02T04:13:19.041Z,81.5162
2023-04-02T04:14:19.915Z,81.0696
2023-04-02T04:15:20.809Z,81.3176
2023-04-02T04:16:21.726Z,81.5232
2023-04-02T04:17:23.559Z,81.7502
2023-04-02T04:18:24.391Z,81.8257
2023-04-02T04:19:25.211Z,81.4976
2023-04-02T04:20:26.074Z,80.9944
2023-04-02T04:21:26.926Z,81.4094
2023-04-02T04:22:27.781Z,81.1370
2023-04-02T04:23:28.600Z,81.2506
2023-04-02T04:24:29.442Z,81.5687
2023-04-02T04:25:30.511Z,81.9007
2023-04-02T04:26:31.428Z,81.5904
2023-04-02T04:27:32.306Z,81.5049
2023-04-02T04:28:33.251Z,81.5287
2023-04-02T04:29:34.098Z,81.8034
2023-04-02T04:30:35.017Z,81.7218
2023-04-02T04:31:35.881Z,81.9942
2023-04-02T04:32:36.761Z,82.0051
2023-04-02T04:33:37.581Z,82.5442
2023-04-02T04:34:38.437Z,82.4607
2023-04-02T04:35:40.415Z,82.2100
2023-04-02T04:36:39.451Z,82.0677
2023-04-02T04:37:43.405Z,82.2304
2023-04-02T04:38:42.032Z,82.1145
2023-04-02T04:39:42.882Z,81.8835
2023-04-02T04:40:43.678Z,81.8711
2023-04-02T04:41:44.651Z,81.8150
2023-04-02T04:42:45.477Z,82.0456
2023-04-02T04:43:46.362Z,82.0289
2023-04-02T04:44:47.154Z,81.7560
2023-04-02T04:45:48.216Z,81.4735
2023-04-02T04:46:49.014Z,81.5851
2023-04-02T04:47:50.016Z,81.5132
2023-04-02T04:48:50.785Z,81.1779
2023-04-02T04:49:51.638Z,81.5104
2023-04-02T04:50:52.584Z,81.5945
2023-04-02T04:51:53.436Z,81.4275
2023-04-02T04:52:55.316Z,81.1468
2023-04-02T04:53:56.180Z,81.3091
2023-04-02T04:54:56.981Z,81.3003
2023-04-02T04:56:18.093Z,81.6499
2023-04-02T04:56:59.367Z,81.7236
2023-04-02T04:58:00.254Z,81.7347
2023-04-02T04:59:01.061Z,81.2112
2023-04-02T05:00:01.886Z,81.1161
2023-04-02T05:01:02.760Z,81.2253
2023-04-02T05:02:03.663Z,81.4396
2023-04-02T05:03:04.567Z,81.3649
2023-04-02T05:04:05.359Z,81.6110
2023-04-02T05:05:06.199Z,81.7086
2023-04-02T05:06:07.018Z,81.9086
2023-04-02T05:07:07.869Z,81.6159
2023-04-02T05:08:08.700Z,81.9921
2023-04-02T05:09:09.581Z,82.0453
2023-04-02T05:10:10.345Z,81.2520
2023-04-02T05:11:11.211Z,81.0024
2023-04-02T05:12:12.115Z,81.3794
2023-04-02T05:13:13.014Z,81.3171
2023-04-02T05:14:13.811Z,81.4558
2023-04-02T05:15:15.717Z,81.4935
2023-04-02T05:16:16.622Z,81.6331
2023-04-02T05:17:17.424Z,81.5652
2023-04-02T05:18:18.248Z,81.5790
2023-04-02T05:19:19.275Z,81.3907
2023-04-02T05:20:20.048Z,81.4672
2023-04-02T05:21:20.863Z,81.1197
2023-04-02T05:22:21.708Z,81.5104
2023-04-02T05:23:22.497Z,81.4594
2023-04-02T05:24:23.339Z,81.5184
2023-04-02T05:25:24.154Z,81.3669
2023-04-02T05:26:24.989Z,81.4725
2023-04-02T05:27:25.898Z,81.5130
2023-04-02T05:28:26.734Z,81.5314
2023-04-02T05:29:27.678Z,81.3686
2023-04-02T05:30:28.484Z,80.6862
2023-04-02T05:31:29.374Z,80.0873
2023-04-02T05:32:30.199Z,80.2548
2023-04-02T05:33:31.069Z,80.4231
2023-04-02T05:34:31.888Z,80.9421
2023-04-02T05:35:32.798Z,80.9142
2023-04-02T05:36:33.598Z,81.1283
2023-04-02T05:37:34.506Z,80.8440
2023-04-02T05:38:35.395Z,80.5004
2023-04-02T05:39:36.211Z,80.7823
2023-04-02T05:40:37.123Z,80.5740
2023-04-02T05:41:37.973Z,80.7086
2023-04-02T05:42:38.783Z,80.8670
2023-04-02T05:43:39.583Z,80.4750
2023-04-02T05:44:40.396Z,80.4477
2023-04-02T05:45:41.258Z,80.6562
2023-04-02T05:46:42.098Z,80.8685
2023-04-02T05:47:43.027Z,80.8670
2023-04-02T05:48:43.865Z,80.6638
2023-04-02T05:49:44.682Z,80.7758
2023-04-02T05:50:45.460Z,80.7254
2023-04-02T05:51:46.308Z,80.8672
2023-04-02T05:52:47.183Z,81.0662
2023-04-02T05:53:47.982Z,80.8212
2023-04-02T05:54:48.932Z,80.8391
2023-04-02T05:55:49.788Z,80.7299
2023-04-02T05:56:50.682Z,80.9227
2023-04-02T05:58:21.336Z,80.5285
2023-04-02T05:58:53.099Z,80.6031
2023-04-02T05:59:53.901Z,80.8789
2023-04-02T06:00:54.771Z,80.5873
2023-04-02T06:01:55.637Z,80.4768
2023-04-02T06:02:56.551Z,80.2298
2023-04-02T06:03:58.274Z,80.2795
2023-04-02T06:04:59.111Z,80.4586
2023-04-02T06:05:59.944Z,80.5386
2023-04-02T06:07:01.856Z,80.6041
2023-04-02T06:08:02.687Z,80.8865
2023-04-02T06:09:03.561Z,80.5454
2023-04-02T06:10:04.364Z,80.7153
2023-04-02T06:11:05.236Z,80.8714
2023-04-02T06:12:06.107Z,80.7570
2023-04-02T06:13:06.978Z,80.8418
2023-04-02T06:14:07.787Z,80.7092
2023-04-02T06:15:08.609Z,80.4325
2023-04-02T06:16:09.428Z,80.4558
2023-04-02T06:17:10.245Z,80.4636
2023-04-02T06:18:11.110Z,80.6700
2023-04-02T06:19:12.013Z,80.5490
2023-04-02T06:20:12.789Z,80.4623
2023-04-02T06:21:13.531Z,79.9582
2023-04-02T06:22:14.295Z,80.2302
2023-04-02T06:23:15.049Z,80.1414
2023-04-02T06:24:15.881Z,80.5415
2023-04-02T06:25:16.729Z,79.9519
2023-04-02T06:26:17.597Z,79.9768
2023-04-02T06:27:18.463Z,79.5054
2023-04-02T06:28:19.240Z,79.9998
2023-04-02T06:29:20.054Z,80.0645
2023-04-02T06:30:20.854Z,79.4521
2023-04-02T06:31:21.697Z,78.8268
2023-04-02T06:32:22.551Z,79.1736
2023-04-02T06:33:23.354Z,79.2770
2023-04-02T06:34:24.154Z,79.5990
2023-04-02T06:35:24.966Z,79.4498
2023-04-02T06:36:25.802Z,79.9213
2023-04-02T06:37:26.574Z,79.5398
2023-04-02T06:38:27.406Z,79.7230
2023-04-02T06:39:28.231Z,79.6308
2023-04-02T06:40:29.048Z,79.2579
2023-04-02T06:41:29.822Z,78.3838
2023-04-02T06:42:30.620Z,78.7787
2023-04-02T06:43:31.466Z,79.0038
2023-04-02T06:44:32.466Z,79.4287
2023-04-02T06:45:33.638Z,79.3868
2023-04-02T06:46:34.780Z,79.1599
2023-04-02T06:47:35.641Z,79.1682
2023-04-02T06:48:36.461Z,78.8845
2023-04-02T06:49:37.269Z,78.7305
2023-04-02T06:50:38.059Z,78.5365
2023-04-02T06:51:38.906Z,78.5093
2023-04-02T06:52:39.712Z,78.5910
2023-04-02T06:53:40.542Z,78.8425
2023-04-02T06:54:42.387Z,78.6990
2023-04-02T06:55:43.157Z,78.8973
2023-04-02T06:56:43.968Z,78.6675
2023-04-02T06:57:44.995Z,78.8504
2023-04-02T06:58:46.943Z,78.6807
2023-04-02T06:59:47.824Z,78.4992
2023-04-02T07:00:48.611Z,78.0769
2023-04-02T07:01:49.592Z,77.9428
2023-04-02T07:02:50.458Z,78.0119
2023-04-02T07:03:51.265Z,78.0380
2023-04-02T07:04:52.192Z,77.6755
2023-04-02T07:05:54.048Z,77.4622
2023-04-02T07:06:54.946Z,77.1374
2023-04-02T07:07:55.768Z,77.1831
2023-04-02T07:08:56.561Z,76.8859
2023-04-02T07:09:57.375Z,76.7962
2023-04-02T07:10:58.130Z,76.7845
2023-04-02T07:11:58.913Z,77.1107
2023-04-02T07:12:59.725Z,77.4762
2023-04-02T07:14:00.603Z,76.7031
2023-04-02T07:15:01.380Z,76.5404
2023-04-02T07:16:02.824Z,76.9855
2023-04-02T07:17:03.736Z,76.8125
2023-04-02T07:18:05.015Z,76.4710
2023-04-02T07:19:06.035Z,76.7800
2023-04-02T07:20:06.863Z,76.6796
2023-04-02T07:21:11.005Z,77.1564
2023-04-02T07:22:11.406Z,77.2162
2023-04-02T07:23:17.037Z,77.0485
2023-04-02T07:24:13.424Z,76.7535
2023-04-02T07:25:14.251Z,76.4145
2023-04-02T07:26:15.091Z,76.1434
2023-04-02T07:27:15.909Z,76.0618
2023-04-02T07:28:16.801Z,76.2324
2023-04-02T07:29:17.596Z,75.8494
2023-04-02T07:30:18.361Z,76.0116
2023-04-02T07:31:19.226Z,75.6564
2023-04-02T07:32:19.979Z,75.2512
2023-04-02T07:33:20.814Z,75.6308
2023-04-02T07:34:21.656Z,75.6524
2023-04-02T07:35:22.401Z,75.4118
2023-04-02T07:36:23.497Z,75.2912
2023-04-02T07:37:24.287Z,75.0236
2023-04-02T07:38:25.179Z,75.2045
2023-04-02T07:39:25.975Z,74.7982
2023-04-02T07:40:26.776Z,75.1940
2023-04-02T07:41:27.531Z,74.7172
2023-04-02T07:42:28.298Z,74.7346
2023-04-02T07:43:29.192Z,75.0439
2023-04-02T07:44:30.041Z,74.8295
2023-04-02T07:45:30.884Z,74.7881
2023-04-02T07:46:31.720Z,75.1340
2023-04-02T07:47:33.716Z,74.8751
2023-04-02T07:48:34.447Z,74.5512
2023-04-02T07:49:35.292Z,74.0382
2023-04-02T07:50:36.080Z,72.9939
2023-04-02T07:51:36.845Z,72.7720
2023-04-02T07:52:40.759Z,72.3969
2023-04-02T07:53:39.273Z,72.5057
2023-04-02T07:54:40.064Z,72.4999
2023-04-02T07:55:40.834Z,72.0267
2023-04-02T07:56:41.555Z,71.3522
2023-04-02T07:57:46.788Z,71.0005
2023-04-02T07:58:43.351Z,71.2368
2023-04-02T07:59:44.117Z,71.8307
2023-04-02T08:00:44.863Z,71.0610
2023-04-02T08:01:45.627Z,72.0794
2023-04-02T08:02:46.405Z,73.4629
2023-04-02T08:03:47.406Z,73.2243
2023-04-02T08:04:48.168Z,73.2933
2023-04-02T08:05:48.968Z,73.5626
2023-04-02T08:06:49.724Z,73.7195
2023-04-02T08:07:50.513Z,73.4839
2023-04-02T08:08:51.312Z,73.7005
2023-04-02T08:09:52.082Z,73.8897
2023-04-02T08:10:52.865Z,74.2255
2023-04-02T08:11:53.641Z,74.2830
2023-04-02T08:12:54.486Z,74.2017
2023-04-02T08:13:55.280Z,74.0349
2023-04-02T08:14:56.022Z,73.4424
2023-04-02T08:15:56.775Z,74.6053
2023-04-02T08:16:57.737Z,74.9092
2023-04-02T08:17:58.624Z,74.8110
2023-04-02T08:18:59.496Z,74.1460
2023-04-02T08:20:00.295Z,73.5415
2023-04-02T08:21:01.018Z,73.5419
2023-04-02T08:22:02.065Z,73.5981
2023-04-02T08:23:02.829Z,74.0412
2023-04-02T08:24:03.582Z,74.1972
2023-04-02T08:25:04.372Z,74.7421
2023-04-02T08:26:05.115Z,74.2606
2023-04-02T08:27:05.878Z,74.2156
2023-04-02T08:28:06.593Z,74.8336
2023-04-02T08:29:07.384Z,73.8307
2023-04-02T08:30:08.105Z,74.2298
2023-04-02T08:31:08.895Z,73.5484
2023-04-02T08:32:09.637Z,73.6445
2023-04-02T08:33:10.412Z,73.3154
2023-04-02T08:34:11.181Z,73.7179
2023-04-02T08:35:11.913Z,73.8050
2023-04-02T08:36:12.706Z,73.2785
2023-04-02T08:37:13.430Z,72.9446
2023-04-02T08:38:14.174Z,73.1269
2023-04-02T08:39:15.163Z,73.9585
2023-04-02T08:40:15.964Z,73.3297
2023-04-02T08:41:16.689Z,73.5199
2023-04-02T08:42:17.429Z,73.6018
2023-04-02T08:43:18.147Z,73.9432
2023-04-02T08:44:18.890Z,73.2904
2023-04-02T08:45:25.812Z,73.3342
2023-04-02T08:46:20.073Z,73.2088
2023-04-02T08:47:20.800Z,72.9259
2023-04-02T08:48:21.552Z,72.7053
2023-04-02T08:49:22.309Z,73.1378
2023-04-02T08:50:23.077Z,73.1246
2023-04-02T08:51:23.837Z,73.3824
2023-04-02T08:52:24.592Z,72.7669
2023-04-02T08:53:25.297Z,73.2263
2023-04-02T08:54:26.083Z,72.9901
2023-04-02T08:55:26.867Z,73.4625
2023-04-02T08:56:27.595Z,73.3012
2023-04-02T08:57:28.447Z,72.4660
2023-04-02T08:58:29.311Z,72.7010
2023-04-02T08:59:30.071Z,72.6776
2023-04-02T09:00:30.853Z,72.5546
2023-04-02T09:01:31.701Z,71.6595
2023-04-02T09:02:32.546Z,71.3872
2023-04-02T09:03:33.306Z,71.4240
2023-04-02T09:04:34.071Z,71.8400
2023-04-02T09:05:35.367Z,72.2171
2023-04-02T09:06:36.250Z,72.4264
2023-04-02T09:07:37.006Z,72.5165
2023-04-02T09:08:37.777Z,72.8343
2023-04-02T09:09:38.483Z,73.0644
2023-04-02T09:10:39.409Z,73.0706
2023-04-02T09:11:40.134Z,72.5269
2023-04-02T09:12:42.576Z,72.1191
2023-04-02T09:13:41.100Z,72.2479
2023-04-02T09:14:41.853Z,71.4837
2023-04-02T09:15:42.703Z,71.0409
2023-04-02T09:16:43.401Z,71.7817
2023-04-02T09:17:54.147Z,71.5185
2023-04-02T09:18:44.317Z,71.5121
2023-04-02T09:19:44.996Z,70.9102
2023-04-02T09:20:45.729Z,70.6688
2023-04-02T09:21:46.736Z,70.4317
2023-04-02T09:22:47.458Z,70.2426
2023-04-02T09:23:48.182Z,70.0998
2023-04-02T09:24:48.907Z,69.8850
2023-04-02T09:26:04.025Z,69.2512
2023-04-02T09:26:51.009Z,69.9493
2023-04-02T09:27:51.717Z,70.5830
2023-04-02T09:28:52.468Z,69.8230
2023-04-02T09:29:53.145Z,70.3447
2023-04-02T09:30:53.864Z,70.4416
2023-04-02T09:31:54.669Z,70.9712
2023-04-02T09:32:55.466Z,70.0554
2023-04-02T09:33:56.220Z,70.0836
2023-04-02T09:34:56.959Z,70.3931
2023-04-02T09:35:58.117Z,70.1946
2023-04-02T09:36:58.894Z,70.0663
2023-04-02T09:37:59.600Z,70.1896
2023-04-02T09:39:00.336Z,69.7471
2023-04-02T09:40:01.041Z,69.6527
2023-04-02T09:41:01.823Z,70.8901
2023-04-02T09:42:06.299Z,70.6512
2023-04-02T09:43:02.539Z,71.0636
2023-04-02T09:44:03.362Z,70.4110
2023-04-02T09:45:04.170Z,69.0407
2023-04-02T09:46:05.014Z,69.5082
2023-04-02T09:47:06.072Z,69.7906
2023-04-02T09:48:06.852Z,69.2894
2023-04-02T09:49:07.570Z,69.1998
2023-04-02T09:50:08.293Z,69.5213
2023-04-02T09:51:09.035Z,69.2917
2023-04-02T09:52:09.800Z,69.2040
2023-04-02T09:53:10.484Z,68.8377
2023-04-02T09:54:11.199Z,68.2784
2023-04-02T09:55:11.998Z,68.5241
2023-04-02T09:56:12.743Z,68.9219
2023-04-02T09:57:13.625Z,68.7287
2023-04-02T09:58:14.318Z,69.0387
2023-04-02T09:59:15.051Z,68.9847
2023-04-02T10:00:31.618Z,68.9522
2023-04-02T10:01:17.305Z,68.8461
2023-04-02T10:02:18.066Z,68.5160
2023-04-02T10:03:18.806Z,67.4954
2023-04-02T10:04:19.645Z,67.1720
2023-04-02T10:05:39.245Z,67.1630
2023-04-02T10:06:21.810Z,66.6153
2023-04-02T10:07:22.483Z,66.4023
2023-04-02T10:08:23.250Z,67.1498
2023-04-02T10:09:24.005Z,66.6738
2023-04-02T10:10:26.811Z,66.0770
2023-04-02T10:11:43.625Z,66.7981
2023-04-02T10:12:26.734Z,66.8683
2023-04-02T10:13:27.438Z,66.7613
2023-04-02T10:14:28.186Z,66.2097
2023-04-02T10:15:28.906Z,66.2520
2023-04-02T10:16:29.861Z,65.6152
2023-04-02T10:17:30.648Z,66.1045
2023-04-02T10:18:31.342Z,65.8050
2023-04-02T10:19:32.118Z,65.8110
2023-04-02T10:20:50.464Z,66.2118
2023-04-02T10:21:34.233Z,66.0391
2023-04-02T10:22:34.929Z,66.1256
2023-04-02T10:23:35.671Z,66.3705
2023-04-02T10:24:36.420Z,65.9443
2023-04-02T10:25:37.636Z,66.0258
2023-04-02T10:26:38.450Z,66.2431
2023-04-02T10:27:39.146Z,66.5361
2023-04-02T10:28:39.832Z,66.5405
2023-04-02T10:29:40.583Z,65.2810
2023-04-02T10:30:41.306Z,66.0546
2023-04-02T10:31:42.022Z,65.7160
2023-04-02T10:32:42.717Z,65.5351
2023-04-02T10:33:43.415Z,65.7812
2023-04-02T10:34:44.126Z,65.9986
2023-04-02T10:35:44.857Z,66.6347
2023-04-02T10:36:45.570Z,66.6001
2023-04-02T10:37:46.302Z,66.2829
2023-04-02T10:38:46.975Z,66.0044
2023-04-02T10:39:47.665Z,65.8793
2023-04-02T10:40:48.375Z,66.2136
2023-04-02T10:41:49.088Z,67.1428
2023-04-02T10:42:49.762Z,66.7678
2023-04-02T10:43:50.505Z,67.3718
2023-04-02T10:44:51.194Z,67.5296
2023-04-02T10:45:51.891Z,66.7955
2023-04-02T10:46:52.563Z,64.9766
2023-04-02T10:47:53.376Z,64.8426
2023-04-02T10:48:54.040Z,65.1349
2023-04-02T10:49:54.744Z,65.0440
2023-04-02T10:50:55.483Z,64.5197
2023-04-02T10:51:56.218Z,64.0826
2023-04-02T10:52:57.088Z,64.0623
2023-04-02T10:53:57.814Z,64.2988
2023-04-02T10:54:58.525Z,64.1497
2023-04-02T10:55:59.246Z,62.4763
2023-04-02T10:56:59.922Z,62.1306
2023-04-02T10:58:00.558Z,62.0922
2023-04-02T10:59:01.222Z,62.4245
2023-04-02T11:00:02.030Z,61.8266
2023-04-02T11:01:02.747Z,61.9096
2023-04-02T11:02:03.584Z,62.1457
2023-04-02T11:03:04.837Z,62.1449
2023-04-02T11:04:05.637Z,61.5449
2023-04-02T11:05:06.504Z,61.1942
2023-04-02T11:06:07.356Z,61.4549
2023-04-02T11:07:15.007Z,62.3107
2023-04-02T11:08:09.219Z,62.6521
2023-04-02T11:09:09.897Z,61.4315
2023-04-02T11:10:10.619Z,62.4711
2023-04-02T11:11:11.293Z,62.9384
2023-04-02T11:12:11.964Z,61.5593
2023-04-02T11:13:12.667Z,62.2202
2023-04-02T11:14:13.357Z,62.2426
2023-04-02T11:15:14.030Z,62.5851
2023-04-02T11:16:14.748Z,61.3662
2023-04-02T11:17:15.419Z,60.8949
2023-04-02T11:18:16.108Z,60.5408
2023-04-02T11:19:17.105Z,61.0066
2023-04-02T11:20:17.827Z,60.0459
2023-04-02T11:21:18.519Z,59.1507
2023-04-02T11:22:19.229Z,60.7910
2023-04-02T11:23:19.910Z,60.9554
2023-04-02T11:24:20.612Z,61.5071
2023-04-02T11:25:21.305Z,61.4961
2023-04-02T11:26:22.017Z,60.9360
2023-04-02T11:27:22.731Z,60.8301
2023-04-02T11:28:25.536Z,61.0393
2023-04-02T11:29:23.997Z,60.3457
2023-04-02T11:30:24.769Z,60.1008
2023-04-02T11:31:25.377Z,60.6590
2023-04-02T11:32:26.095Z,60.7023
2023-04-02T11:33:38.132Z,59.3831
2023-04-02T11:34:28.154Z,60.0091
2023-04-02T11:35:28.876Z,59.7018
2023-04-02T11:36:29.586Z,59.4796
2023-04-02T11:37:30.307Z,59.0689
2023-04-02T11:38:30.994Z,57.5551
2023-04-02T11:39:31.692Z,59.0421
2023-04-02T11:40:32.394Z,57.1140
2023-04-02T11:41:33.158Z,57.0685
2023-04-02T11:42:33.825Z,58.1420
2023-04-02T11:43:34.612Z,58.1457
2023-04-02T11:44:35.254Z,56.8865
2023-04-02T11:45:51.878Z,56.6272
2023-04-02T11:46:37.382Z,57.6439
2023-04-02T11:47:38.144Z,57.5110
2023-04-02T11:48:38.855Z,58.0336
2023-04-02T11:49:39.961Z,60.1853
2023-04-02T11:50:41.417Z,58.5736
2023-04-02T11:51:42.602Z,57.7953
2023-04-02T11:52:43.340Z,57.7573
2023-04-02T11:53:43.981Z,55.3315
2023-04-02T11:54:44.631Z,54.9328
2023-04-02T11:55:45.294Z,56.3720
2023-04-02T11:56:45.978Z,58.2243
2023-04-02T11:57:46.674Z,59.6853
2023-04-02T11:58:47.366Z,60.9189
2023-04-02T11:59:48.013Z,60.9367
2023-04-02T12:00:48.692Z,56.2609
2023-04-02T12:01:49.381Z,53.5700
2023-04-02T12:02:50.106Z,52.0345
2023-04-02T12:03:50.791Z,56.4900
2023-04-02T12:04:51.456Z,58.6275
2023-04-02T12:05:52.145Z,59.3970
2023-04-02T12:06:52.765Z,60.0639
2023-04-02T12:07:53.492Z,62.0577
2023-04-02T12:08:58.812Z,62.0764
2023-04-02T12:09:55.100Z,61.6270
2023-04-02T12:10:55.722Z,61.5297
2023-04-02T12:11:57.427Z,62.4688
2023-04-02T12:12:58.098Z,62.7713
2023-04-02T12:13:58.790Z,62.5982
2023-04-02T12:14:59.475Z,62.1249
2023-04-02T12:16:00.141Z,62.3319